sensor_id;sensor_type;location;lat;lon;timestamp;pressure;altitude;pressure_sealevel;temperature;humidity
35878;BME280;21982;49.804;24.072;2024-03-02T00:00:00;97062.72;;;7.99;72.62
35878;BME280;21982;49.804;24.072;2024-03-02T00:02:28;97051.81;;;8.02;73.09
35878;BME280;21982;49.804;24.072;2024-03-02T00:04:53;97023.31;;;7.83;72.90
35878;BME280;21982;49.804;24.072;2024-03-02T00:07:22;97025.59;;;7.86;72.61
35878;BME280;21982;49.804;24.072;2024-03-02T00:09:47;97025.31;;;7.81;73.06
35878;BME280;21982;49.804;24.072;2024-03-02T00:12:15;97049.19;;;8.02;73.46
35878;BME280;21982;49.804;24.072;2024-03-02T00:14:41;96844.31;;;6.61;72.85
35878;BME280;21982;49.804;24.072;2024-03-02T00:17:21;97057.22;;;8.09;72.26
35878;BME280;21982;49.804;24.072;2024-03-02T00:19:50;97011.16;;;7.82;72.35
35878;BME280;21982;49.804;24.072;2024-03-02T00:22:15;96972.47;;;7.60;72.43
35878;BME280;21982;49.804;24.072;2024-03-02T00:24:41;97044.56;;;8.04;72.54
35878;BME280;21982;49.804;24.072;2024-03-02T00:27:07;97046.19;;;8.05;72.63
35878;BME280;21982;49.804;24.072;2024-03-02T00:29:32;97044.56;;;8.04;72.24
35878;BME280;21982;49.804;24.072;2024-03-02T00:32:00;97037.28;;;8.06;72.33
35878;BME280;21982;49.804;24.072;2024-03-02T00:34:26;96968.03;;;7.75;72.76
35878;BME280;21982;49.804;24.072;2024-03-02T00:36:51;97027.81;;;7.97;72.41
35878;BME280;21982;49.804;24.072;2024-03-02T00:39:17;97030.38;;;8.05;72.00
35878;BME280;21982;49.804;24.072;2024-03-02T00:41:43;97031.38;;;8.04;72.70
35878;BME280;21982;49.804;24.072;2024-03-02T00:44:12;97023.47;;;8.04;72.25
35878;BME280;21982;49.804;24.072;2024-03-02T00:46:39;96972.28;;;7.61;72.65
35878;BME280;21982;49.804;24.072;2024-03-02T00:51:37;97022.63;;;8.04;72.20
35878;BME280;21982;49.804;24.072;2024-03-02T00:54:07;96947.03;;;7.67;72.38
35878;BME280;21982;49.804;24.072;2024-03-02T00:58:58;96731.97;;;6.24;72.08
35878;BME280;21982;49.804;24.072;2024-03-02T01:04:14;96891.00;;;7.13;72.55
35878;BME280;21982;49.804;24.072;2024-03-02T01:06:39;97003.63;;;7.94;72.31
35878;BME280;21982;49.804;24.072;2024-03-02T01:24:46;96645.94;;;5.64;72.26
35878;BME280;21982;49.804;24.072;2024-03-02T01:27:11;96969.19;;;7.58;72.38
35878;BME280;21982;49.804;24.072;2024-03-02T01:29:37;96967.16;;;7.83;72.40
35878;BME280;21982;49.804;24.072;2024-03-02T01:32:02;96976.53;;;7.85;72.35
35878;BME280;21982;49.804;24.072;2024-03-02T01:34:28;96930.66;;;7.57;72.01
35878;BME280;21982;49.804;24.072;2024-03-02T01:36:53;96981.31;;;7.82;72.65
35878;BME280;21982;49.804;24.072;2024-03-02T01:39:18;96961.47;;;7.71;72.81
35878;BME280;21982;49.804;24.072;2024-03-02T01:41:44;96974.13;;;7.76;72.46
35878;BME280;21982;49.804;24.072;2024-03-02T01:44:09;96975.94;;;7.75;72.26
35878;BME280;21982;49.804;24.072;2024-03-02T01:46:35;96959.31;;;7.74;72.29
35878;BME280;21982;49.804;24.072;2024-03-02T01:49:01;96963.75;;;7.74;72.50
35878;BME280;21982;49.804;24.072;2024-03-02T01:51:26;96909.13;;;7.30;72.60
35878;BME280;21982;49.804;24.072;2024-03-02T01:53:52;96914.03;;;7.33;72.29
35878;BME280;21982;49.804;24.072;2024-03-02T01:56:17;96903.88;;;7.30;71.98
35878;BME280;21982;49.804;24.072;2024-03-02T01:58:42;96962.84;;;7.67;72.42
35878;BME280;21982;49.804;24.072;2024-03-02T02:01:09;96975.00;;;7.68;72.41
35878;BME280;21982;49.804;24.072;2024-03-02T02:03:35;96966.47;;;7.66;72.23
35878;BME280;21982;49.804;24.072;2024-03-02T02:06:00;96948.66;;;7.68;72.86
35878;BME280;21982;49.804;24.072;2024-03-02T02:08:26;96952.75;;;7.70;72.48
35878;BME280;21982;49.804;24.072;2024-03-02T02:16:06;96793.13;;;6.71;72.04
35878;BME280;21982;49.804;24.072;2024-03-02T02:18:32;96850.41;;;7.07;72.32
35878;BME280;21982;49.804;24.072;2024-03-02T02:20:57;96956.84;;;7.73;71.77
35878;BME280;21982;49.804;24.072;2024-03-02T02:25:58;96942.31;;;7.77;72.09
35878;BME280;21982;49.804;24.072;2024-03-02T02:28:23;96937.06;;;7.77;72.34
35878;BME280;21982;49.804;24.072;2024-03-02T02:30:49;96690.03;;;6.08;71.41
35878;BME280;21982;49.804;24.072;2024-03-02T02:33:14;96943.78;;;7.80;72.48
35878;BME280;21982;49.804;24.072;2024-03-02T02:35:40;96881.56;;;7.41;71.62
35878;BME280;21982;49.804;24.072;2024-03-02T02:38:05;96874.19;;;7.36;72.08
35878;BME280;21982;49.804;24.072;2024-03-02T02:40:31;96901.97;;;7.62;71.77
35878;BME280;21982;49.804;24.072;2024-03-02T02:42:57;96916.44;;;7.81;72.06
35878;BME280;21982;49.804;24.072;2024-03-02T02:45:24;96834.56;;;7.15;71.42
35878;BME280;21982;49.804;24.072;2024-03-02T02:47:49;96892.50;;;7.53;71.48
35878;BME280;21982;49.804;24.072;2024-03-02T02:50:15;96921.94;;;7.71;71.66
35878;BME280;21982;49.804;24.072;2024-03-02T02:52:41;96901.75;;;7.63;72.02
35878;BME280;21982;49.804;24.072;2024-03-02T03:02:44;96682.44;;;6.35;71.44
35878;BME280;21982;49.804;24.072;2024-03-02T03:07:58;96932.34;;;7.87;71.62
35878;BME280;21982;49.804;24.072;2024-03-02T03:10:23;96896.41;;;7.71;71.77
35878;BME280;21982;49.804;24.072;2024-03-02T03:22:14;96811.84;;;7.14;71.42
35878;BME280;21982;49.804;24.072;2024-03-02T03:24:39;96931.06;;;7.83;71.53
35878;BME280;21982;49.804;24.072;2024-03-02T03:27:05;96922.81;;;7.86;71.35
35878;BME280;21982;49.804;24.072;2024-03-02T03:29:30;96895.59;;;7.71;70.70
35878;BME280;21982;49.804;24.072;2024-03-02T03:34:34;96922.34;;;7.97;70.69
35878;BME280;21982;49.804;24.072;2024-03-02T03:37:01;96917.63;;;7.93;71.31
35878;BME280;21982;49.804;24.072;2024-03-02T03:39:27;96917.63;;;7.93;70.72
35878;BME280;21982;49.804;24.072;2024-03-02T03:41:53;96914.00;;;7.94;70.21
35878;BME280;21982;49.804;24.072;2024-03-02T03:44:19;96915.00;;;7.93;71.33
35878;BME280;21982;49.804;24.072;2024-03-02T03:46:44;96886.34;;;7.75;70.67
35878;BME280;21982;49.804;24.072;2024-03-02T03:49:11;96901.00;;;7.92;70.60
35878;BME280;21982;49.804;24.072;2024-03-02T03:51:36;96903.63;;;7.92;70.96
35878;BME280;21982;49.804;24.072;2024-03-02T03:54:02;96877.53;;;7.83;71.09
35878;BME280;21982;49.804;24.072;2024-03-02T03:56:28;96895.72;;;7.92;70.46
35878;BME280;21982;49.804;24.072;2024-03-02T03:58:53;96863.97;;;7.71;70.30
35878;BME280;21982;49.804;24.072;2024-03-02T04:01:19;96896.72;;;7.91;70.46
35878;BME280;21982;49.804;24.072;2024-03-02T04:03:44;96810.78;;;7.38;70.55
35878;BME280;21982;49.804;24.072;2024-03-02T04:06:10;96839.09;;;7.59;70.44
35878;BME280;21982;49.804;24.072;2024-03-02T04:08:35;96889.19;;;7.88;70.10
35878;BME280;21982;49.804;24.072;2024-03-02T04:11:01;96884.53;;;7.90;70.44
35878;BME280;21982;49.804;24.072;2024-03-02T04:13:28;96885.19;;;7.92;70.25
35878;BME280;21982;49.804;24.072;2024-03-02T04:15:53;96837.16;;;7.67;70.34
35878;BME280;21982;49.804;24.072;2024-03-02T04:18:19;96872.44;;;7.81;69.89
35878;BME280;21982;49.804;24.072;2024-03-02T04:20:44;96904.34;;;7.86;70.19
35878;BME280;21982;49.804;24.072;2024-03-02T04:23:09;96904.34;;;7.86;69.82
35878;BME280;21982;49.804;24.072;2024-03-02T04:25:35;96868.31;;;7.64;70.24
35878;BME280;21982;49.804;24.072;2024-03-02T04:28:01;96876.16;;;7.72;70.24
35878;BME280;21982;49.804;24.072;2024-03-02T04:30:27;96876.78;;;7.74;70.02
35878;BME280;21982;49.804;24.072;2024-03-02T04:32:53;96646.25;;;6.37;69.32
35878;BME280;21982;49.804;24.072;2024-03-02T04:35:18;96712.91;;;6.67;69.73
35878;BME280;21982;49.804;24.072;2024-03-02T04:37:44;96742.25;;;6.94;69.45
35878;BME280;21982;49.804;24.072;2024-03-02T04:40:10;96833.59;;;7.46;69.21
35878;BME280;21982;49.804;24.072;2024-03-02T04:42:35;96912.59;;;7.98;70.05
35878;BME280;21982;49.804;24.072;2024-03-02T04:45:01;96912.00;;;7.96;69.59
35878;BME280;21982;49.804;24.072;2024-03-02T04:47:27;96919.91;;;7.96;69.42
35878;BME280;21982;49.804;24.072;2024-03-02T04:49:52;96907.09;;;7.93;69.48
35878;BME280;21982;49.804;24.072;2024-03-02T04:52:18;96872.69;;;7.71;69.21
35878;BME280;21982;49.804;24.072;2024-03-02T04:54:43;96904.91;;;7.96;69.25
35878;BME280;21982;49.804;24.072;2024-03-02T04:57:28;96904.28;;;7.94;69.87
35878;BME280;21982;49.804;24.072;2024-03-02T04:59:53;96889.63;;;7.92;69.01
35878;BME280;21982;49.804;24.072;2024-03-02T05:02:18;96895.19;;;7.97;69.02
35878;BME280;21982;49.804;24.072;2024-03-02T05:04:44;96904.63;;;8.06;69.75
35878;BME280;21982;49.804;24.072;2024-03-02T05:07:09;96882.91;;;7.89;69.15
35878;BME280;21982;49.804;24.072;2024-03-02T05:09:35;96913.00;;;8.10;68.87
35878;BME280;21982;49.804;24.072;2024-03-02T05:12:00;96888.53;;;8.01;68.76
35878;BME280;21982;49.804;24.072;2024-03-02T05:14:40;96852.25;;;7.73;68.96
35878;BME280;21982;49.804;24.072;2024-03-02T05:17:06;96903.72;;;8.14;69.00
35878;BME280;21982;49.804;24.072;2024-03-02T05:19:31;96891.16;;;8.01;68.82
35878;BME280;21982;49.804;24.072;2024-03-02T05:21:57;96897.25;;;8.01;68.66
35878;BME280;21982;49.804;24.072;2024-03-02T05:24:22;96923.44;;;8.18;69.04
35878;BME280;21982;49.804;24.072;2024-03-02T05:26:47;96914.53;;;8.19;68.32
35878;BME280;21982;49.804;24.072;2024-03-02T05:29:13;96889.34;;;8.01;68.47
35878;BME280;21982;49.804;24.072;2024-03-02T05:31:39;96912.34;;;8.22;68.64
35878;BME280;21982;49.804;24.072;2024-03-02T05:34:04;96913.09;;;8.16;67.93
35878;BME280;21982;49.804;24.072;2024-03-02T05:36:30;96909.00;;;8.14;68.32
35878;BME280;21982;49.804;24.072;2024-03-02T05:38:56;96937.72;;;8.23;68.19
35878;BME280;21982;49.804;24.072;2024-03-02T05:41:22;96846.97;;;7.73;67.87
35878;BME280;21982;49.804;24.072;2024-03-02T05:43:47;96841.53;;;7.75;68.00
35878;BME280;21982;49.804;24.072;2024-03-02T05:46:13;96923.19;;;8.27;68.34
35878;BME280;21982;49.804;24.072;2024-03-02T05:48:38;96913.72;;;8.18;68.37
35878;BME280;21982;49.804;24.072;2024-03-02T05:51:04;96927.81;;;8.25;67.95
35878;BME280;21982;49.804;24.072;2024-03-02T05:53:29;96830.44;;;7.65;68.15
35878;BME280;21982;49.804;24.072;2024-03-02T05:55:54;96907.16;;;8.14;67.96
35878;BME280;21982;49.804;24.072;2024-03-02T05:58:21;96901.81;;;8.07;68.09
35878;BME280;21982;49.804;24.072;2024-03-02T06:01:06;96929.28;;;8.28;67.98
35878;BME280;21982;49.804;24.072;2024-03-02T06:03:31;96939.84;;;8.28;67.78
35878;BME280;21982;49.804;24.072;2024-03-02T06:05:57;96925.25;;;8.32;67.65
35878;BME280;21982;49.804;24.072;2024-03-02T06:08:22;96908.91;;;8.22;68.04
35878;BME280;21982;49.804;24.072;2024-03-02T06:10:48;96917.81;;;8.21;67.43
35878;BME280;21982;49.804;24.072;2024-03-02T06:13:13;96934.19;;;8.31;67.83
35878;BME280;21982;49.804;24.072;2024-03-02T06:15:38;96927.88;;;8.32;67.50
35878;BME280;21982;49.804;24.072;2024-03-02T06:18:04;96935.81;;;8.32;68.30
35878;BME280;21982;49.804;24.072;2024-03-02T06:20:31;96884.34;;;8.06;67.83
35878;BME280;21982;49.804;24.072;2024-03-02T06:22:57;96920.09;;;8.38;67.35
35878;BME280;21982;49.804;24.072;2024-03-02T06:25:22;96887.44;;;8.25;67.70
35878;BME280;21982;49.804;24.072;2024-03-02T06:27:48;96928.66;;;8.40;67.78
35878;BME280;21982;49.804;24.072;2024-03-02T06:30:13;96917.28;;;8.40;67.25
35878;BME280;21982;49.804;24.072;2024-03-02T06:32:39;96930.38;;;8.48;67.50
35878;BME280;21982;49.804;24.072;2024-03-02T06:35:04;96932.28;;;8.54;67.20
35878;BME280;21982;49.804;24.072;2024-03-02T06:37:32;96837.97;;;7.97;67.32
35878;BME280;21982;49.804;24.072;2024-03-02T06:39:57;96927.19;;;8.53;67.08
35878;BME280;21982;49.804;24.072;2024-03-02T06:42:22;96923.28;;;8.49;67.57
35878;BME280;21982;49.804;24.072;2024-03-02T06:44:49;96941.56;;;8.50;67.37
35878;BME280;21982;49.804;24.072;2024-03-02T06:47:15;96806.19;;;7.84;67.15
35878;BME280;21982;49.804;24.072;2024-03-02T06:49:42;96875.53;;;8.29;66.95
35878;BME280;21982;49.804;24.072;2024-03-02T06:52:08;96908.16;;;8.57;66.57
35878;BME280;21982;49.804;24.072;2024-03-02T06:54:33;96898.34;;;8.51;66.87
35878;BME280;21982;49.804;24.072;2024-03-02T06:57:00;96927.16;;;8.67;66.19
35878;BME280;21982;49.804;24.072;2024-03-02T06:59:26;96867.16;;;8.25;66.81
35878;BME280;21982;49.804;24.072;2024-03-02T07:01:52;96923.63;;;8.60;66.18
35878;BME280;21982;49.804;24.072;2024-03-02T07:04:17;96846.78;;;8.04;66.54
35878;BME280;21982;49.804;24.072;2024-03-02T07:06:42;96961.47;;;8.67;66.80
35878;BME280;21982;49.804;24.072;2024-03-02T07:09:08;96938.28;;;8.63;66.13
35878;BME280;21982;49.804;24.072;2024-03-02T07:11:36;96964.38;;;8.72;66.37
35878;BME280;21982;49.804;24.072;2024-03-02T07:14:01;96921.19;;;8.59;66.07
35878;BME280;21982;49.804;24.072;2024-03-02T07:16:28;96935.88;;;8.68;65.56
35878;BME280;21982;49.804;24.072;2024-03-02T07:18:55;96950.06;;;8.82;66.34
35878;BME280;21982;49.804;24.072;2024-03-02T07:21:22;96941.03;;;8.91;66.09
35878;BME280;21982;49.804;24.072;2024-03-02T07:23:48;96945.41;;;8.98;65.72
35878;BME280;21982;49.804;24.072;2024-03-02T07:26:14;96904.97;;;8.62;65.30
35878;BME280;21982;49.804;24.072;2024-03-02T07:28:41;96951.53;;;8.84;65.62
35878;BME280;21982;49.804;24.072;2024-03-02T07:31:07;96960.78;;;8.95;65.41
35878;BME280;21982;49.804;24.072;2024-03-02T07:33:35;96967.53;;;8.97;65.77
35878;BME280;21982;49.804;24.072;2024-03-02T07:36:00;96964.31;;;9.02;65.40
35878;BME280;21982;49.804;24.072;2024-03-02T07:38:28;96890.41;;;8.66;64.92
35878;BME280;21982;49.804;24.072;2024-03-02T07:40:54;96959.31;;;9.28;64.82
35878;BME280;21982;49.804;24.072;2024-03-02T07:43:21;96970.38;;;9.38;64.62
35878;BME280;21982;49.804;24.072;2024-03-02T07:45:47;96971.63;;;9.43;64.41
35878;BME280;21982;49.804;24.072;2024-03-02T07:48:16;96912.38;;;9.09;64.28
35878;BME280;21982;49.804;24.072;2024-03-02T07:50:43;96962.03;;;9.35;64.25
35878;BME280;21982;49.804;24.072;2024-03-02T07:53:08;96919.94;;;9.12;64.32
35878;BME280;21982;49.804;24.072;2024-03-02T07:55:34;96969.25;;;9.48;64.32
35878;BME280;21982;49.804;24.072;2024-03-02T07:58:00;96969.56;;;9.59;64.37
35878;BME280;21982;49.804;24.072;2024-03-02T08:00:26;96953.91;;;9.58;63.90
35878;BME280;21982;49.804;24.072;2024-03-02T08:02:53;96966.84;;;9.74;63.63
35878;BME280;21982;49.804;24.072;2024-03-02T08:05:19;96955.59;;;9.65;63.63
35878;BME280;21982;49.804;24.072;2024-03-02T08:07:45;96918.03;;;9.49;64.04
35878;BME280;21982;49.804;24.072;2024-03-02T08:10:12;96923.50;;;9.68;63.69
35878;BME280;21982;49.804;24.072;2024-03-02T08:12:37;96973.34;;;9.99;63.65
35878;BME280;21982;49.804;24.072;2024-03-02T08:15:04;96910.22;;;9.62;62.99
35878;BME280;21982;49.804;24.072;2024-03-02T08:17:31;96975.81;;;10.01;63.28
35878;BME280;21982;49.804;24.072;2024-03-02T08:19:57;96934.97;;;9.82;63.27
35878;BME280;21982;49.804;24.072;2024-03-02T08:22:23;96988.19;;;10.22;63.28
35878;BME280;21982;49.804;24.072;2024-03-02T08:24:51;96951.41;;;10.05;63.00
35878;BME280;21982;49.804;24.072;2024-03-02T08:27:16;96989.50;;;10.32;62.52
35878;BME280;21982;49.804;24.072;2024-03-02T08:29:42;96933.50;;;10.07;62.46
35878;BME280;21982;49.804;24.072;2024-03-02T08:32:07;96970.78;;;10.34;62.20
35878;BME280;21982;49.804;24.072;2024-03-02T08:34:33;96983.69;;;10.50;62.20
35878;BME280;21982;49.804;24.072;2024-03-02T08:37:01;96990.06;;;10.62;61.88
35878;BME280;21982;49.804;24.072;2024-03-02T08:42:02;96922.41;;;10.53;61.48
35878;BME280;21982;49.804;24.072;2024-03-02T08:44:30;96996.78;;;11.06;60.69
35878;BME280;21982;49.804;24.072;2024-03-02T08:46:56;96919.22;;;10.71;60.97
35878;BME280;21982;49.804;24.072;2024-03-02T08:49:21;96966.66;;;11.20;60.82
35878;BME280;21982;49.804;24.072;2024-03-02T08:51:47;96996.09;;;11.52;60.57
35878;BME280;21982;49.804;24.072;2024-03-02T08:54:22;96990.78;;;11.58;59.99
35878;BME280;21982;49.804;24.072;2024-03-02T08:57:08;96984.28;;;11.61;59.73
35878;BME280;21982;49.804;24.072;2024-03-02T08:59:36;96933.66;;;11.36;59.65
35878;BME280;21982;49.804;24.072;2024-03-02T09:02:05;96953.25;;;11.55;59.51
35878;BME280;21982;49.804;24.072;2024-03-02T09:04:30;96985.94;;;11.75;59.19
35878;BME280;21982;49.804;24.072;2024-03-02T09:06:55;96913.06;;;11.31;59.02
35878;BME280;21982;49.804;24.072;2024-03-02T09:09:21;96987.78;;;11.88;58.87
35878;BME280;21982;49.804;24.072;2024-03-02T09:11:46;96908.38;;;11.47;58.66
35878;BME280;21982;49.804;24.072;2024-03-02T09:14:12;96970.44;;;11.92;58.63
35878;BME280;21982;49.804;24.072;2024-03-02T09:16:37;97000.22;;;12.20;58.72
35878;BME280;21982;49.804;24.072;2024-03-02T09:19:09;96975.56;;;12.06;58.17
35878;BME280;21982;49.804;24.072;2024-03-02T09:21:35;96881.88;;;11.66;58.23
35878;BME280;21982;49.804;24.072;2024-03-02T09:24:00;96995.06;;;12.52;57.59
35878;BME280;21982;49.804;24.072;2024-03-02T09:26:27;96990.78;;;12.64;57.18
35878;BME280;21982;49.804;24.072;2024-03-02T09:28:53;96995.66;;;12.73;57.15
35878;BME280;21982;49.804;24.072;2024-03-02T09:31:18;96995.38;;;12.88;56.85
35878;BME280;21982;49.804;24.072;2024-03-02T09:33:43;96995.56;;;13.00;56.80
35878;BME280;21982;49.804;24.072;2024-03-02T09:36:19;96999.81;;;13.07;55.99
35878;BME280;21982;49.804;24.072;2024-03-02T09:38:45;96997.16;;;13.07;56.67
35878;BME280;21982;49.804;24.072;2024-03-02T09:41:11;97002.41;;;13.27;56.05
35878;BME280;21982;49.804;24.072;2024-03-02T09:43:37;97002.75;;;13.44;56.01
35878;BME280;21982;49.804;24.072;2024-03-02T09:46:03;96998.88;;;13.71;55.48
35878;BME280;21982;49.804;24.072;2024-03-02T09:48:29;96995.38;;;13.78;54.68
35878;BME280;21982;49.804;24.072;2024-03-02T09:53:45;97000.50;;;13.72;54.82
35878;BME280;21982;49.804;24.072;2024-03-02T09:56:26;96997.53;;;13.87;54.22
35878;BME280;21982;49.804;24.072;2024-03-02T10:04:03;96795.22;;;12.25;54.05
35878;BME280;21982;49.804;24.072;2024-03-02T10:06:31;96944.25;;;13.37;54.29
35878;BME280;21982;49.804;24.072;2024-03-02T10:09:02;96982.28;;;13.76;54.02
35878;BME280;21982;49.804;24.072;2024-03-02T10:11:41;96988.38;;;13.83;53.63
35878;BME280;21982;49.804;24.072;2024-03-02T10:14:12;96979.69;;;13.63;53.84
35878;BME280;21982;49.804;24.072;2024-03-02T10:16:40;96926.31;;;13.26;53.57
35878;BME280;21982;49.804;24.072;2024-03-02T10:19:17;96948.00;;;13.30;53.40
35878;BME280;21982;49.804;24.072;2024-03-02T10:21:47;96982.16;;;13.26;54.00
35878;BME280;21982;49.804;24.072;2024-03-02T10:24:13;96919.94;;;12.96;53.97
35878;BME280;21982;49.804;24.072;2024-03-02T10:26:39;96997.88;;;13.34;53.74
35878;BME280;21982;49.804;24.072;2024-03-02T10:29:04;96904.91;;;12.77;54.13
35878;BME280;21982;49.804;24.072;2024-03-02T10:31:30;96970.56;;;13.14;53.79
35878;BME280;21982;49.804;24.072;2024-03-02T10:33:55;97004.31;;;13.14;54.39
35878;BME280;21982;49.804;24.072;2024-03-02T10:36:22;96992.78;;;13.33;54.34
35878;BME280;21982;49.804;24.072;2024-03-02T10:38:48;96886.50;;;12.82;54.01
35878;BME280;21982;49.804;24.072;2024-03-02T10:41:20;96975.94;;;13.46;53.79
35878;BME280;21982;49.804;24.072;2024-03-02T10:43:48;96991.34;;;13.30;54.68
35878;BME280;21982;49.804;24.072;2024-03-02T10:46:14;96926.69;;;12.92;54.28
35878;BME280;21982;49.804;24.072;2024-03-02T10:48:43;96975.81;;;13.27;54.44
35878;BME280;21982;49.804;24.072;2024-03-02T10:51:10;96994.88;;;13.56;54.00
35878;BME280;21982;49.804;24.072;2024-03-02T10:53:36;96996.41;;;13.77;53.80
35878;BME280;21982;49.804;24.072;2024-03-02T10:56:02;96970.69;;;13.64;53.45
35878;BME280;21982;49.804;24.072;2024-03-02T10:58:32;96962.22;;;13.49;53.35
35878;BME280;21982;49.804;24.072;2024-03-02T11:01:05;97007.94;;;13.64;53.17
35878;BME280;21982;49.804;24.072;2024-03-02T11:03:34;96999.06;;;13.45;53.41
35878;BME280;21982;49.804;24.072;2024-03-02T11:06:00;96958.94;;;13.08;53.91
35878;BME280;21982;49.804;24.072;2024-03-02T11:08:33;96972.63;;;13.05;53.93
35878;BME280;21982;49.804;24.072;2024-03-02T11:11:06;97006.50;;;13.23;53.78
35878;BME280;21982;49.804;24.072;2024-03-02T11:13:33;96945.53;;;12.84;53.78
35878;BME280;21982;49.804;24.072;2024-03-02T11:16:05;96855.25;;;12.26;53.97
35878;BME280;21982;49.804;24.072;2024-03-02T11:18:31;97006.16;;;13.13;53.98
35878;BME280;21982;49.804;24.072;2024-03-02T11:20:57;96998.81;;;13.02;53.76
35878;BME280;21982;49.804;24.072;2024-03-02T11:23:34;97002.53;;;12.94;54.17
35878;BME280;21982;49.804;24.072;2024-03-02T11:26:22;96992.91;;;13.00;54.12
35878;BME280;21982;49.804;24.072;2024-03-02T11:28:50;97000.44;;;13.03;54.46
35878;BME280;21982;49.804;24.072;2024-03-02T11:31:16;96974.72;;;12.97;53.93
35878;BME280;21982;49.804;24.072;2024-03-02T11:33:42;96987.31;;;13.15;54.02
35878;BME280;21982;49.804;24.072;2024-03-02T11:36:11;96957.56;;;12.93;54.05
35878;BME280;21982;49.804;24.072;2024-03-02T11:38:43;96807.53;;;12.06;54.13
35878;BME280;21982;49.804;24.072;2024-03-02T11:41:10;97013.03;;;13.27;53.78
35878;BME280;21982;49.804;24.072;2024-03-02T11:43:41;97000.56;;;13.28;53.57
35878;BME280;21982;49.804;24.072;2024-03-02T11:46:08;96974.13;;;12.88;53.99
35878;BME280;21982;49.804;24.072;2024-03-02T11:48:39;97000.03;;;13.06;54.00
35878;BME280;21982;49.804;24.072;2024-03-02T11:51:04;96954.41;;;12.64;54.22
35878;BME280;21982;49.804;24.072;2024-03-02T11:53:33;97002.13;;;12.91;53.64
35878;BME280;21982;49.804;24.072;2024-03-02T11:56:01;96939.34;;;12.45;54.12
35878;BME280;21982;49.804;24.072;2024-03-02T11:58:31;96946.28;;;12.46;53.77
35878;BME280;21982;49.804;24.072;2024-03-02T12:00:56;96965.66;;;12.60;53.57
35878;BME280;21982;49.804;24.072;2024-03-02T12:03:25;96958.91;;;12.57;53.49
35878;BME280;21982;49.804;24.072;2024-03-02T12:05:55;96977.69;;;12.62;52.98
35878;BME280;21982;49.804;24.072;2024-03-02T12:08:21;97000.34;;;12.78;52.96
35878;BME280;21982;49.804;24.072;2024-03-02T12:11:02;96994.97;;;12.85;52.89
35878;BME280;21982;49.804;24.072;2024-03-02T12:13:30;96965.00;;;12.71;52.85
35878;BME280;21982;49.804;24.072;2024-03-02T12:15:56;96978.88;;;12.80;52.56
35878;BME280;21982;49.804;24.072;2024-03-02T12:18:22;96997.22;;;12.88;52.29
35878;BME280;21982;49.804;24.072;2024-03-02T12:20:57;96967.25;;;12.67;52.04
35878;BME280;21982;49.804;24.072;2024-03-02T12:23:43;96986.28;;;12.64;52.29
35878;BME280;21982;49.804;24.072;2024-03-02T12:26:11;96993.19;;;12.79;52.25
35878;BME280;21982;49.804;24.072;2024-03-02T12:28:39;96896.09;;;12.25;52.16
35878;BME280;21982;49.804;24.072;2024-03-02T12:31:05;96969.47;;;12.77;51.87
35878;BME280;21982;49.804;24.072;2024-03-02T12:33:32;96989.41;;;13.06;51.73
35878;BME280;21982;49.804;24.072;2024-03-02T12:36:20;96992.03;;;13.13;51.40
35878;BME280;21982;49.804;24.072;2024-03-02T12:38:45;96961.19;;;13.05;51.68
35878;BME280;21982;49.804;24.072;2024-03-02T12:41:15;96787.38;;;11.92;51.43
35878;BME280;21982;49.804;24.072;2024-03-02T12:43:41;96986.88;;;13.24;51.40
35878;BME280;21982;49.804;24.072;2024-03-02T12:46:06;96962.41;;;13.09;51.31
35878;BME280;21982;49.804;24.072;2024-03-02T12:48:34;96914.44;;;12.84;50.85
35878;BME280;21982;49.804;24.072;2024-03-02T12:51:01;96995.81;;;13.36;51.13
35878;BME280;21982;49.804;24.072;2024-03-02T12:53:26;96983.38;;;13.30;50.67
35878;BME280;21982;49.804;24.072;2024-03-02T12:55:52;96986.84;;;13.31;50.82
35878;BME280;21982;49.804;24.072;2024-03-02T12:58:19;96984.81;;;13.26;50.35
35878;BME280;21982;49.804;24.072;2024-03-02T13:00:46;96962.41;;;13.09;49.95
35878;BME280;21982;49.804;24.072;2024-03-02T13:03:12;96993.03;;;13.18;49.55
35878;BME280;21982;49.804;24.072;2024-03-02T13:05:39;96937.56;;;12.84;49.66
35878;BME280;21982;49.804;24.072;2024-03-02T13:08:06;96925.38;;;12.69;49.17
35878;BME280;21982;49.804;24.072;2024-03-02T13:10:32;96901.69;;;12.61;48.83
35878;BME280;21982;49.804;24.072;2024-03-02T13:12:58;96974.66;;;13.17;48.68
35878;BME280;21982;49.804;24.072;2024-03-02T13:15:23;96983.03;;;13.14;48.53
35878;BME280;21982;49.804;24.072;2024-03-02T13:17:49;96981.81;;;13.09;48.30
35878;BME280;21982;49.804;24.072;2024-03-02T13:20:16;96877.25;;;12.46;48.61
35878;BME280;21982;49.804;24.072;2024-03-02T13:22:43;96922.28;;;12.72;47.96
35878;BME280;21982;49.804;24.072;2024-03-02T13:25:09;96938.00;;;12.81;48.00
35878;BME280;21982;49.804;24.072;2024-03-02T13:27:36;96977.31;;;13.10;47.84
35878;BME280;21982;49.804;24.072;2024-03-02T13:30:03;96963.47;;;12.95;47.97
35878;BME280;21982;49.804;24.072;2024-03-02T13:32:31;96887.88;;;12.39;47.84
35878;BME280;21982;49.804;24.072;2024-03-02T13:34:56;96868.31;;;12.21;48.13
35878;BME280;21982;49.804;24.072;2024-03-02T13:37:21;96952.72;;;12.77;48.00
35878;BME280;21982;49.804;24.072;2024-03-02T13:39:47;96941.72;;;12.66;47.58
35878;BME280;21982;49.804;24.072;2024-03-02T13:42:13;96911.13;;;12.51;47.72
35878;BME280;21982;49.804;24.072;2024-03-02T13:44:41;96891.38;;;12.33;47.25
35878;BME280;21982;49.804;24.072;2024-03-02T13:47:09;96982.16;;;12.75;47.03
35878;BME280;21982;49.804;24.072;2024-03-02T13:49:34;96957.69;;;12.53;46.74
35878;BME280;21982;49.804;24.072;2024-03-02T13:52:05;96980.13;;;12.64;46.84
35878;BME280;21982;49.804;24.072;2024-03-02T13:54:44;96978.94;;;12.53;46.71
35878;BME280;21982;49.804;24.072;2024-03-02T13:57:10;96920.44;;;11.95;46.75